createdAt,value
2018-05-04T00:01:45.878Z,71.28
2018-05-04T00:04:13.456Z,71.22
2018-05-04T00:06:41.057Z,71.68
2018-05-04T00:09:08.761Z,71.21
2018-05-04T00:11:36.337Z,71.21
2018-05-04T00:14:03.911Z,70.93
2018-05-04T00:16:31.481Z,70.78
2018-05-04T00:18:59.070Z,70.83
2018-05-04T00:21:26.663Z,70.83
2018-05-04T00:23:54.231Z,70.71
2018-05-04T00:26:21.848Z,71.00
2018-05-04T00:28:49.396Z,70.91
2018-05-04T00:31:16.962Z,71.13
2018-05-04T00:33:44.609Z,71.09
2018-05-04T00:36:12.186Z,70.97
2018-05-04T00:38:39.775Z,70.86
2018-05-04T00:41:07.356Z,70.50
2018-05-04T00:43:35.289Z,70.66
2018-05-04T00:46:02.922Z,70.74
2018-05-04T00:48:30.489Z,70.73
2018-05-04T00:50:58.061Z,70.74
2018-05-04T00:53:26.828Z,70.80
2018-05-04T00:55:54.330Z,70.60
2018-05-04T00:58:21.853Z,70.68
2018-05-04T01:00:49.390Z,70.65
2018-05-04T01:03:16.944Z,70.64
2018-05-04T01:05:44.507Z,71.12
2018-05-04T01:08:12.097Z,70.66
2018-05-04T01:10:39.627Z,70.54
2018-05-04T01:13:07.150Z,70.62
2018-05-04T01:15:35.236Z,70.73
2018-05-04T01:18:02.824Z,70.77
2018-05-04T01:20:30.406Z,70.85
2018-05-04T01:22:57.981Z,70.57
2018-05-04T01:25:26.432Z,70.91
2018-05-04T01:27:54.040Z,70.91
2018-05-04T01:30:21.602Z,70.76
2018-05-04T01:32:49.190Z,71.00
2018-05-04T01:35:16.816Z,71.01
2018-05-04T01:37:44.390Z,71.15
2018-05-04T01:40:11.960Z,71.24
2018-05-04T01:42:39.550Z,70.85
2018-05-04T01:45:07.112Z,71.32
2018-05-04T01:47:34.686Z,71.30
2018-05-04T01:50:02.261Z,71.12
2018-05-04T01:52:29.826Z,70.92
2018-05-04T01:54:57.420Z,71.13
2018-05-04T01:57:25.054Z,71.15
2018-05-04T01:59:52.627Z,71.06
2018-05-04T02:02:27.888Z,71.00
2018-05-04T02:04:55.508Z,71.21
2018-05-04T02:07:23.696Z,71.21
2018-05-04T02:09:51.280Z,71.22
2018-05-04T02:12:18.860Z,71.56
2018-05-04T02:14:46.419Z,71.46
2018-05-04T02:17:14.171Z,71.57
2018-05-04T02:19:41.953Z,71.13
2018-05-04T02:22:09.580Z,71.87
2018-05-04T02:24:37.173Z,71.83
2018-05-04T02:27:04.754Z,71.66
2018-05-04T02:29:32.497Z,71.82
2018-05-04T02:32:00.067Z,71.85
2018-05-04T02:34:27.663Z,71.72
2018-05-04T02:36:55.252Z,71.81
2018-05-04T02:39:22.750Z,71.78
2018-05-04T02:41:50.293Z,71.88
2018-05-04T02:44:17.871Z,71.71
2018-05-04T02:46:45.374Z,72.17
2018-05-04T02:49:13.122Z,71.95
2018-05-04T02:51:40.746Z,71.65
2018-05-04T02:54:08.271Z,71.86
2018-05-04T02:56:35.800Z,72.20
2018-05-04T02:59:03.412Z,72.21
2018-05-04T03:01:30.987Z,72.41
2018-05-04T03:03:59.020Z,72.21
2018-05-04T03:06:26.965Z,72.47
2018-05-04T03:08:54.927Z,72.98
2018-05-04T03:11:22.444Z,73.27
2018-05-04T03:13:49.959Z,73.14
2018-05-04T03:16:17.502Z,73.06
2018-05-04T03:18:45.010Z,73.22
2018-05-04T03:21:12.621Z,73.53
2018-05-04T03:23:40.160Z,73.61
2018-05-04T03:26:07.745Z,73.30
2018-05-04T03:28:35.416Z,73.19
2018-05-04T03:31:03.272Z,72.88
2018-05-04T03:33:31.454Z,72.99
2018-05-04T03:35:59.138Z,72.55
2018-05-04T03:38:26.752Z,72.84
2018-05-04T03:40:54.326Z,73.14
2018-05-04T03:43:21.929Z,73.70
2018-05-04T03:45:49.480Z,73.39
2018-05-04T03:48:17.066Z,73.39
2018-05-04T03:50:44.964Z,73.47
2018-05-04T03:53:13.068Z,74.22
2018-05-04T03:55:40.650Z,74.64
2018-05-04T03:58:19.876Z,74.56
2018-05-04T04:00:59.078Z,74.44
2018-05-04T04:03:38.325Z,74.26
2018-05-04T04:06:05.874Z,74.22
2018-05-04T04:08:33.436Z,74.04
2018-05-04T04:11:01.016Z,74.00
2018-05-04T04:13:28.769Z,73.42
2018-05-04T04:15:56.368Z,73.50
2018-05-04T04:18:24.092Z,73.63
2018-05-04T04:20:51.632Z,73.66
2018-05-04T04:23:19.233Z,73.82
2018-05-04T04:25:46.789Z,73.93
2018-05-04T04:28:15.303Z,74.19
2018-05-04T04:30:42.842Z,74.19
2018-05-04T04:33:11.948Z,74.38
2018-05-04T04:35:39.538Z,74.07
2018-05-04T04:38:07.099Z,74.30
2018-05-04T04:40:34.692Z,74.49
2018-05-04T04:43:02.270Z,74.46
2018-05-04T04:45:29.896Z,74.79
2018-05-04T04:47:57.401Z,74.46
2018-05-04T04:50:24.947Z,74.60
2018-05-04T04:52:52.503Z,74.52
2018-05-04T04:55:20.049Z,74.66
2018-05-04T04:57:47.611Z,74.13
2018-05-04T05:00:15.092Z,74.19
2018-05-04T05:02:42.626Z,74.28
2018-05-04T05:05:10.556Z,74.57
2018-05-04T05:07:38.106Z,74.44
2018-05-04T05:10:05.596Z,74.29
2018-05-04T05:12:33.135Z,74.77
2018-05-04T05:15:00.628Z,74.39
2018-05-04T05:17:28.140Z,74.44
2018-05-04T05:19:55.653Z,74.50
2018-05-04T05:22:23.149Z,74.52
2018-05-04T05:24:50.693Z,74.43
2018-05-04T05:27:18.242Z,74.01
2018-05-04T05:29:45.813Z,74.14
2018-05-04T05:32:13.328Z,74.24
2018-05-04T05:34:40.828Z,74.31
2018-05-04T05:37:08.423Z,74.24
2018-05-04T05:39:36.058Z,74.47
2018-05-04T05:42:03.602Z,74.18
2018-05-04T05:44:31.137Z,74.41
2018-05-04T05:46:58.689Z,74.32
2018-05-04T05:49:26.248Z,74.15
2018-05-04T05:51:53.856Z,74.30
2018-05-04T05:54:21.377Z,74.21
2018-05-04T05:56:48.894Z,74.06
2018-05-04T05:59:16.468Z,74.15
2018-05-04T06:01:44.033Z,73.96
2018-05-04T06:04:11.524Z,73.95
2018-05-04T06:06:39.074Z,73.41
2018-05-04T06:09:06.601Z,73.56
2018-05-04T06:11:35.208Z,73.33
2018-05-04T06:14:02.756Z,73.01
2018-05-04T06:16:30.461Z,73.15
2018-05-04T06:18:58.004Z,73.50
2018-05-04T06:21:25.550Z,73.59
2018-05-04T06:23:53.136Z,73.15
2018-05-04T06:26:20.682Z,73.29
2018-05-04T06:28:48.260Z,73.29
2018-05-04T06:31:15.808Z,72.93
2018-05-04T06:33:43.576Z,73.29
2018-05-04T06:36:11.110Z,72.99
2018-05-04T06:38:38.680Z,73.38
2018-05-04T06:41:06.231Z,73.49
2018-05-04T06:43:33.734Z,73.23
2018-05-04T06:46:01.223Z,72.94
2018-05-04T06:48:28.714Z,72.82
2018-05-04T06:50:56.236Z,73.01
2018-05-04T06:53:23.835Z,72.53
2018-05-04T06:55:51.343Z,71.98
2018-05-04T06:58:18.888Z,72.44
2018-05-04T07:00:46.452Z,72.96
2018-05-04T07:03:14.000Z,73.10
2018-05-04T07:05:41.557Z,72.64
2018-05-04T07:08:09.061Z,72.67
2018-05-04T07:10:36.627Z,72.74
2018-05-04T07:13:04.168Z,72.41
2018-05-04T07:15:31.740Z,71.70
2018-05-04T07:17:59.219Z,71.89
2018-05-04T07:20:26.741Z,71.55
2018-05-04T07:22:54.271Z,71.53
2018-05-04T07:25:21.824Z,72.08
2018-05-04T07:27:49.369Z,71.96
2018-05-04T07:30:16.886Z,72.32
2018-05-04T07:32:44.420Z,72.09
2018-05-04T07:35:12.021Z,71.75
2018-05-04T07:37:40.248Z,71.55
2018-05-04T07:40:07.804Z,71.29
2018-05-04T07:42:35.406Z,71.39
2018-05-04T07:45:03.008Z,71.12
2018-05-04T07:47:30.586Z,71.23
2018-05-04T07:49:58.158Z,71.34
2018-05-04T07:52:25.807Z,71.25
2018-05-04T07:54:53.387Z,71.58
2018-05-04T07:57:20.956Z,71.31
2018-05-04T07:59:48.517Z,71.31
2018-05-04T08:02:16.047Z,71.07
2018-05-04T08:04:43.590Z,71.08
2018-05-04T08:07:11.381Z,71.14
2018-05-04T08:09:38.937Z,71.36
2018-05-04T08:12:06.446Z,71.32
2018-05-04T08:14:34.202Z,71.47
2018-05-04T08:17:01.779Z,71.56
2018-05-04T08:19:29.590Z,71.16
2018-05-04T08:21:57.223Z,70.78
2018-05-04T08:24:24.810Z,71.22
2018-05-04T08:26:52.360Z,71.10
2018-05-04T08:29:19.977Z,70.75
2018-05-04T08:31:47.557Z,70.73
2018-05-04T08:34:15.137Z,70.82
2018-05-04T08:36:42.650Z,70.65
2018-05-04T08:39:10.476Z,70.54
2018-05-04T08:41:38.040Z,70.36
2018-05-04T08:44:05.545Z,70.36
2018-05-04T08:46:33.071Z,69.69
2018-05-04T08:49:00.618Z,70.28
2018-05-04T08:51:28.165Z,70.50
2018-05-04T08:53:55.709Z,70.29
2018-05-04T08:56:23.240Z,69.91
2018-05-04T08:58:50.778Z,69.59
2018-05-04T09:01:18.344Z,69.81
2018-05-04T09:03:45.935Z,69.53
2018-05-04T09:06:13.472Z,69.55
2018-05-04T09:08:40.990Z,69.30
2018-05-04T09:11:08.541Z,70.01
2018-05-04T09:13:36.055Z,69.91
2018-05-04T09:16:03.594Z,69.50
2018-05-04T09:18:31.131Z,69.44
2018-05-04T09:20:58.699Z,69.50
2018-05-04T09:23:26.290Z,69.30
2018-05-04T09:25:53.878Z,69.31
2018-05-04T09:28:21.484Z,69.50
2018-05-04T09:30:49.163Z,68.77
2018-05-04T09:33:17.040Z,68.02
2018-05-04T09:35:44.652Z,67.95
2018-05-04T09:38:12.236Z,68.00
2018-05-04T09:40:39.896Z,68.78
2018-05-04T09:43:07.524Z,67.75
2018-05-04T09:45:35.110Z,68.11
2018-05-04T09:48:02.652Z,67.81
2018-05-04T09:50:30.247Z,68.26
2018-05-04T09:52:57.783Z,67.92
2018-05-04T09:55:25.812Z,66.99
2018-05-04T09:57:53.389Z,66.67
2018-05-04T10:00:20.907Z,66.56
2018-05-04T10:02:48.419Z,66.79
2018-05-04T10:05:16.868Z,66.63
2018-05-04T10:07:44.491Z,66.92
2018-05-04T10:10:12.119Z,67.13
2018-05-04T10:12:40.433Z,65.76
2018-05-04T10:15:08.313Z,65.63
2018-05-04T10:17:35.991Z,66.13
2018-05-04T10:20:04.895Z,65.22
2018-05-04T10:22:34.416Z,65.21
2018-05-04T10:25:01.989Z,65.22
2018-05-04T10:27:31.295Z,64.97
2018-05-04T10:32:30.820Z,64.40
2018-05-04T10:34:58.388Z,63.89
2018-05-04T10:37:26.082Z,63.76
2018-05-04T10:39:53.613Z,62.86
2018-05-04T10:42:21.118Z,62.41
2018-05-04T10:44:48.652Z,62.23
2018-05-04T10:47:16.277Z,62.10
2018-05-04T10:49:43.880Z,62.37
2018-05-04T10:52:11.479Z,62.04
2018-05-04T10:54:39.204Z,61.56
2018-05-04T10:57:06.908Z,61.79
2018-05-04T10:59:34.508Z,62.68
2018-05-04T11:02:02.189Z,62.83
2018-05-04T11:04:29.734Z,62.48
2018-05-04T11:06:57.353Z,62.62
2018-05-04T11:09:24.950Z,62.14
2018-05-04T11:11:52.541Z,62.38
2018-05-04T11:14:20.133Z,62.57
2018-05-04T11:16:47.723Z,62.83
2018-05-04T11:19:15.311Z,62.10
2018-05-04T11:21:43.013Z,62.84
2018-05-04T11:24:10.596Z,62.50
2018-05-04T11:26:38.282Z,62.04
2018-05-04T11:29:05.949Z,61.99
2018-05-04T11:31:33.520Z,61.28
2018-05-04T11:34:01.079Z,61.66
2018-05-04T11:36:28.687Z,60.62
2018-05-04T11:38:56.337Z,61.30
2018-05-04T11:41:24.044Z,61.36
2018-05-04T11:43:51.669Z,60.60
2018-05-04T11:46:19.245Z,61.15
2018-05-04T11:48:46.871Z,60.61
2018-05-04T11:51:14.566Z,60.89
2018-05-04T11:53:42.176Z,61.39
2018-05-04T11:56:09.803Z,61.27
2018-05-04T11:58:37.447Z,60.81
2018-05-04T12:01:05.099Z,61.11
2018-05-04T12:03:36.896Z,61.26
2018-05-04T12:06:04.544Z,61.03
2018-05-04T12:11:05.928Z,61.42
2018-05-04T12:13:33.635Z,61.07
2018-05-04T12:16:01.281Z,60.78
2018-05-04T12:18:28.868Z,61.09
2018-05-04T12:20:56.440Z,60.25
2018-05-04T12:23:24.287Z,59.27
2018-05-04T12:25:51.934Z,59.70
2018-05-04T12:28:19.593Z,59.90
2018-05-04T12:30:47.248Z,58.26
2018-05-04T12:33:14.869Z,57.28
2018-05-04T12:35:42.474Z,57.40
2018-05-04T12:38:10.179Z,58.36
2018-05-04T12:40:37.767Z,58.06
2018-05-04T12:43:05.392Z,58.50
2018-05-04T12:45:33.015Z,57.29
2018-05-04T12:48:00.645Z,56.12
2018-05-04T12:50:28.258Z,55.96
2018-05-04T12:52:55.840Z,55.95
2018-05-04T12:55:23.450Z,55.70
2018-05-04T12:57:51.046Z,54.79
2018-05-04T13:00:18.677Z,53.87
2018-05-04T13:02:46.297Z,53.74
2018-05-04T13:05:15.845Z,54.54
2018-05-04T13:07:43.480Z,54.70
2018-05-04T13:10:11.133Z,54.04
2018-05-04T13:12:38.779Z,54.87
2018-05-04T13:15:06.438Z,55.25
2018-05-04T13:17:34.064Z,54.17
2018-05-04T13:20:01.761Z,55.03
2018-05-04T13:22:29.308Z,53.69
2018-05-04T13:24:56.847Z,53.94
2018-05-04T13:27:24.460Z,53.91
2018-05-04T13:29:52.128Z,54.41
2018-05-04T13:32:19.694Z,54.06
2018-05-04T13:34:47.357Z,53.36
2018-05-04T13:37:15.028Z,52.99
2018-05-04T13:39:42.751Z,52.49
2018-05-04T13:42:10.370Z,52.98
2018-05-04T13:44:38.164Z,53.91
2018-05-04T13:47:05.750Z,53.50
2018-05-04T13:49:33.431Z,54.70
2018-05-04T13:52:01.073Z,54.99
2018-05-04T13:54:28.682Z,55.04
2018-05-04T13:56:56.332Z,54.60
2018-05-04T13:59:23.937Z,53.02
2018-05-04T14:01:51.534Z,53.65
2018-05-04T14:04:19.163Z,53.58
2018-05-04T14:06:46.768Z,53.90
2018-05-04T14:09:14.342Z,54.03
2018-05-04T14:11:41.965Z,52.30
2018-05-04T14:14:17.968Z,52.43
2018-05-04T14:16:50.714Z,52.76
2018-05-04T14:19:34.387Z,52.17
2018-05-04T14:22:02.214Z,51.92
2018-05-04T14:24:29.796Z,50.95
2018-05-04T14:26:57.400Z,51.19
2018-05-04T14:29:24.975Z,52.01
2018-05-04T14:31:52.555Z,52.30
2018-05-04T14:34:20.124Z,52.00
2018-05-04T14:36:48.439Z,52.52
2018-05-04T14:39:16.033Z,52.18
2018-05-04T14:41:43.647Z,52.28
2018-05-04T14:44:11.283Z,51.41
2018-05-04T14:46:38.889Z,50.96
2018-05-04T14:49:06.616Z,51.21
2018-05-04T14:51:34.306Z,50.47
2018-05-04T14:54:01.934Z,50.61
2018-05-04T14:56:29.645Z,50.71
2018-05-04T14:58:57.229Z,50.92
2018-05-04T15:01:24.880Z,50.89
2018-05-04T15:03:52.540Z,51.89
2018-05-04T15:06:20.112Z,52.19
2018-05-04T15:08:47.784Z,51.56
2018-05-04T15:11:15.728Z,50.73
2018-05-04T15:13:43.349Z,50.47
2018-05-04T15:16:10.970Z,50.16
2018-05-04T15:18:38.846Z,49.17
2018-05-04T15:21:06.440Z,49.07
2018-05-04T15:23:34.092Z,49.28
2018-05-04T15:26:01.683Z,49.53
2018-05-04T15:28:29.381Z,49.74
2018-05-04T15:30:57.150Z,49.50
2018-05-04T15:33:24.747Z,49.02
2018-05-04T15:35:52.271Z,49.95
2018-05-04T15:38:19.921Z,50.24
2018-05-04T15:40:47.585Z,50.82
2018-05-04T15:43:15.259Z,50.54
2018-05-04T15:45:42.904Z,50.45
2018-05-04T15:48:16.209Z,50.97
2018-05-04T15:50:49.388Z,50.85
2018-05-04T15:53:17.087Z,50.29
2018-05-04T15:55:45.767Z,49.88
2018-05-04T15:58:13.349Z,49.98
2018-05-04T16:00:41.105Z,49.05
2018-05-04T16:03:08.932Z,49.53
2018-05-04T16:05:36.496Z,49.78
2018-05-04T16:10:43.223Z,50.19
2018-05-04T16:13:22.988Z,50.06
2018-05-04T16:15:50.645Z,50.21
2018-05-04T16:18:18.250Z,50.07
2018-05-04T16:20:45.855Z,50.13
2018-05-04T16:23:13.576Z,50.00
2018-05-04T16:25:41.212Z,49.71
2018-05-04T16:28:08.807Z,49.98
2018-05-04T16:30:36.385Z,50.72
2018-05-04T16:33:04.001Z,50.73
2018-05-04T16:35:31.570Z,51.11
2018-05-04T16:37:59.164Z,50.69
2018-05-04T16:40:26.792Z,50.48
2018-05-04T16:42:54.371Z,50.45
2018-05-04T16:45:21.939Z,51.13
2018-05-04T16:47:55.126Z,51.42
2018-05-04T16:50:22.736Z,51.73
2018-05-04T16:52:50.307Z,51.81
2018-05-04T16:55:18.666Z,52.61
2018-05-04T16:57:46.293Z,52.91
2018-05-04T17:00:13.922Z,52.76
2018-05-04T17:02:41.516Z,53.17
2018-05-04T17:05:09.090Z,53.30
2018-05-04T17:07:36.731Z,53.88
2018-05-04T17:10:04.311Z,54.85
2018-05-04T17:12:31.945Z,55.96
2018-05-04T17:14:59.594Z,56.37
2018-05-04T17:17:27.306Z,56.98
2018-05-04T17:19:54.965Z,57.00
2018-05-04T17:22:22.523Z,57.50
2018-05-04T17:24:50.116Z,57.76
2018-05-04T17:27:17.766Z,58.46
2018-05-04T17:29:45.352Z,58.76
2018-05-04T17:32:12.943Z,59.22
2018-05-04T17:34:40.527Z,59.51
2018-05-04T17:37:08.208Z,60.09
2018-05-04T17:39:35.828Z,60.07
2018-05-04T17:42:03.378Z,60.07
2018-05-04T17:44:31.027Z,60.10
2018-05-04T17:46:58.620Z,60.48
2018-05-04T17:49:26.211Z,60.36
2018-05-04T17:51:53.955Z,60.85
2018-05-04T17:54:21.575Z,60.62
2018-05-04T17:56:49.176Z,61.86
2018-05-04T17:59:16.775Z,61.92
2018-05-04T18:01:44.389Z,62.34
2018-05-04T18:04:11.997Z,62.83
2018-05-04T18:06:45.031Z,63.21
2018-05-04T18:09:12.820Z,63.47
2018-05-04T18:11:40.390Z,64.41
2018-05-04T18:14:08.053Z,65.39
2018-05-04T18:16:35.691Z,65.85
2018-05-04T18:19:03.289Z,66.07
2018-05-04T18:21:30.887Z,66.78
2018-05-04T18:23:58.479Z,66.79
2018-05-04T18:26:26.193Z,67.39
2018-05-04T18:28:53.749Z,67.19
2018-05-04T18:31:21.493Z,66.79
2018-05-04T18:33:49.115Z,66.87
2018-05-04T18:36:16.749Z,67.04
2018-05-04T18:38:44.403Z,67.11
2018-05-04T18:41:13.063Z,67.33
2018-05-04T18:43:40.706Z,67.58
2018-05-04T18:46:08.311Z,68.03
2018-05-04T18:48:35.911Z,68.76
2018-05-04T18:51:03.521Z,70.01
2018-05-04T18:53:31.094Z,70.42
2018-05-04T18:55:58.680Z,70.65
2018-05-04T18:58:26.273Z,70.65
2018-05-04T19:00:53.872Z,70.60
2018-05-04T19:03:23.057Z,69.90
2018-05-04T19:05:50.733Z,70.03
2018-05-04T19:08:18.333Z,69.89
2018-05-04T19:10:45.921Z,70.06
2018-05-04T19:13:14.586Z,70.11
2018-05-04T19:15:42.302Z,70.31
2018-05-04T19:18:09.898Z,71.48
2018-05-04T19:20:37.537Z,71.93
2018-05-04T19:23:05.120Z,71.83
2018-05-04T19:25:32.717Z,71.73
2018-05-04T19:28:00.377Z,72.07
2018-05-04T19:30:28.019Z,72.29
2018-05-04T19:32:55.623Z,72.36
2018-05-04T19:35:23.240Z,72.29
2018-05-04T19:37:50.983Z,71.62
2018-05-04T19:40:18.667Z,71.55
2018-05-04T19:42:46.295Z,72.72
2018-05-04T19:45:13.917Z,72.87
2018-05-04T19:47:41.590Z,72.83
2018-05-04T19:50:09.147Z,72.79
2018-05-04T19:52:36.943Z,72.24
2018-05-04T19:55:04.504Z,71.77
2018-05-04T19:57:32.087Z,72.33
2018-05-04T19:59:59.696Z,73.30
2018-05-04T20:02:27.290Z,73.13
2018-05-04T20:05:06.321Z,73.20
2018-05-04T20:07:35.093Z,73.71
2018-05-04T20:10:08.476Z,73.82
2018-05-04T20:12:36.217Z,74.03
2018-05-04T20:15:03.834Z,73.52
2018-05-04T20:17:31.470Z,73.69
2018-05-04T20:19:59.135Z,73.83
2018-05-04T20:22:26.877Z,73.21
2018-05-04T20:24:54.520Z,73.47
2018-05-04T20:27:22.613Z,73.84
2018-05-04T20:29:51.426Z,73.47
2018-05-04T20:32:19.004Z,72.86
2018-05-04T20:34:46.632Z,72.19
2018-05-04T20:37:14.223Z,72.11
2018-05-04T20:39:41.773Z,72.38
2018-05-04T20:42:09.392Z,72.08
2018-05-04T20:44:37.054Z,71.78
2018-05-04T20:47:04.716Z,71.62
2018-05-04T20:49:32.565Z,71.08
2018-05-04T20:52:00.227Z,70.84
2018-05-04T20:54:27.807Z,70.88
2018-05-04T20:56:55.405Z,71.14
2018-05-04T20:59:22.999Z,71.04
2018-05-04T21:01:50.572Z,70.62
2018-05-04T21:04:18.126Z,71.36
2018-05-04T21:06:45.706Z,71.61
2018-05-04T21:09:13.971Z,71.12
2018-05-04T21:11:41.609Z,70.66
2018-05-04T21:14:09.248Z,70.48
2018-05-04T21:16:36.884Z,70.67
2018-05-04T21:19:04.601Z,71.07
2018-05-04T21:21:32.241Z,71.55
2018-05-04T21:23:59.836Z,71.20
2018-05-04T21:26:27.465Z,72.21
2018-05-04T21:28:55.086Z,71.93
2018-05-04T21:31:23.299Z,71.82
2018-05-04T21:33:50.934Z,71.98
2018-05-04T21:36:18.519Z,72.59
2018-05-04T21:38:46.128Z,73.18
2018-05-04T21:41:13.994Z,72.52
2018-05-04T21:43:41.559Z,73.01
2018-05-04T21:46:09.172Z,72.84
2018-05-04T21:48:36.772Z,73.05
2018-05-04T21:51:04.419Z,72.83
2018-05-04T21:53:32.167Z,72.29
2018-05-04T21:55:59.794Z,72.33
2018-05-04T21:58:27.380Z,72.55
2018-05-04T22:00:54.953Z,72.19
2018-05-04T22:03:26.456Z,72.71
2018-05-04T22:06:02.119Z,72.89
2018-05-04T22:08:29.757Z,73.50
2018-05-04T22:10:57.400Z,73.44
2018-05-04T22:13:26.127Z,73.54
2018-05-04T22:15:53.741Z,73.82
2018-05-04T22:18:21.702Z,74.52
2018-05-04T22:20:49.379Z,75.01
2018-05-04T22:23:17.057Z,74.93
2018-05-04T22:25:44.649Z,74.63
2018-05-04T22:28:12.249Z,74.58
2018-05-04T22:30:58.353Z,74.72
2018-05-04T22:33:26.225Z,74.88
2018-05-04T22:35:53.834Z,75.26
2018-05-04T22:38:21.400Z,75.35
2018-05-04T22:40:48.963Z,75.23
2018-05-04T22:43:16.600Z,75.56
2018-05-04T22:45:44.231Z,75.41
2018-05-04T22:48:11.824Z,75.32
2018-05-04T22:50:39.498Z,75.30
2018-05-04T22:53:07.106Z,75.40
2018-05-04T22:55:34.955Z,75.33
2018-05-04T22:58:02.621Z,75.17
2018-05-04T23:00:30.192Z,75.36
2018-05-04T23:02:57.728Z,75.63
2018-05-04T23:05:25.329Z,76.12
2018-05-04T23:07:52.905Z,76.06
2018-05-04T23:10:20.487Z,76.49
2018-05-04T23:12:48.068Z,76.99
2018-05-04T23:15:15.786Z,76.96
2018-05-04T23:17:43.405Z,76.43
2018-05-04T23:20:10.984Z,76.68
2018-05-04T23:22:38.572Z,76.52
2018-05-04T23:25:06.278Z,76.41
2018-05-04T23:27:34.340Z,76.77
2018-05-04T23:30:01.914Z,76.40
2018-05-04T23:32:29.507Z,76.14
2018-05-04T23:34:57.157Z,76.15
2018-05-04T23:37:24.743Z,75.89
2018-05-04T23:39:52.330Z,76.07
2018-05-04T23:42:20.013Z,75.97
2018-05-04T23:44:47.607Z,75.90
2018-05-04T23:47:15.871Z,76.00
2018-05-04T23:49:43.456Z,75.92
2018-05-04T23:52:11.088Z,76.23
2018-05-04T23:54:38.688Z,76.66
2018-05-04T23:57:06.306Z,76.60
2018-05-04T23:59:33.906Z,76.25
